L45 weather

Bakersfield Municipal Airport
Bakersfield, California, United States

Public forecast

Using degrees Fahrenheit for public forecast. Weather courtesy of forecast.io.

METAR (pilot weather report)

Closest report is Meadows Field, 7.2 nm (13.3 km) NNW. Retrieved 2018/08/20 22:54 UTC (9 minutes ago):

KBFL 202254Z 32012KT 10SM CLR 40/04 A2977 RMK AO2 SLP071 T04000039

TAF (pilot weather forecast)

Closest forecast is Meadows Field, 7.2 nm (13.3 km) NNW. Retrieved 2018/08/20 18:22 UTC (5 hours ago):

TAF KBFL 201720Z 2018/2118 30007KT P6SM SKC FM202000 30012G20KT P6SM SKC